sensor_id;sensor_type;location;lat;lon;timestamp;pressure;altitude;pressure_sealevel;temperature;humidity
30636;BME280;17400;52.392;9.750;2023-06-19T00:01:19;100520.34;;;23.78;49.24
30636;BME280;17400;52.392;9.750;2023-06-19T00:03:47;100519.88;;;23.71;49.64
30636;BME280;17400;52.392;9.750;2023-06-19T00:06:15;100514.34;;;23.71;49.45
30636;BME280;17400;52.392;9.750;2023-06-19T00:08:43;100507.78;;;23.67;49.81
30636;BME280;17400;52.392;9.750;2023-06-19T00:11:11;100512.22;;;23.63;49.87
30636;BME280;17400;52.392;9.750;2023-06-19T00:13:39;100515.25;;;23.61;50.46
30636;BME280;17400;52.392;9.750;2023-06-19T00:16:07;100515.03;;;23.58;50.47
30636;BME280;17400;52.392;9.750;2023-06-19T00:18:36;100510.63;;;23.57;50.41
30636;BME280;17400;52.392;9.750;2023-06-19T00:21:08;100504.53;;;23.55;50.77
30636;BME280;17400;52.392;9.750;2023-06-19T00:23:36;100502.38;;;23.52;50.75
30636;BME280;17400;52.392;9.750;2023-06-19T00:26:05;100502.97;;;23.49;51.01
30636;BME280;17400;52.392;9.750;2023-06-19T00:28:33;100504.31;;;23.51;51.10
30636;BME280;17400;52.392;9.750;2023-06-19T00:31:01;100498.88;;;23.41;51.25
30636;BME280;17400;52.392;9.750;2023-06-19T00:33:29;100505.25;;;23.36;51.37
30636;BME280;17400;52.392;9.750;2023-06-19T00:35:58;100500.88;;;23.35;51.65
30636;BME280;17400;52.392;9.750;2023-06-19T00:38:25;100500.34;;;23.28;51.62
30636;BME280;17400;52.392;9.750;2023-06-19T00:40:54;100491.47;;;23.31;51.57
30636;BME280;17400;52.392;9.750;2023-06-19T00:43:22;100489.59;;;23.26;51.04
30636;BME280;17400;52.392;9.750;2023-06-19T00:45:49;100486.88;;;23.21;51.77
30636;BME280;17400;52.392;9.750;2023-06-19T00:48:17;100486.34;;;23.19;51.90
30636;BME280;17400;52.392;9.750;2023-06-19T00:50:45;100488.53;;;23.22;51.54
30636;BME280;17400;52.392;9.750;2023-06-19T00:53:14;100483.78;;;23.28;51.07
30636;BME280;17400;52.392;9.750;2023-06-19T00:55:43;100482.75;;;23.19;51.92
30636;BME280;17400;52.392;9.750;2023-06-19T00:58:12;100479.16;;;23.18;52.02
30636;BME280;17400;52.392;9.750;2023-06-19T01:00:39;100473.88;;;23.22;51.76
30636;BME280;17400;52.392;9.750;2023-06-19T01:03:18;100465.06;;;23.20;51.59
30636;BME280;17400;52.392;9.750;2023-06-19T01:05:47;100458.47;;;23.16;51.85
30636;BME280;17400;52.392;9.750;2023-06-19T01:08:30;100457.63;;;23.15;52.21
30636;BME280;17400;52.392;9.750;2023-06-19T01:11:02;100462.91;;;23.11;52.56
30636;BME280;17400;52.392;9.750;2023-06-19T01:13:55;100453.00;;;23.05;52.50
30636;BME280;17400;52.392;9.750;2023-06-19T01:16:25;100459.44;;;22.95;53.24
30636;BME280;17400;52.392;9.750;2023-06-19T01:18:54;100448.09;;;22.97;53.14
30636;BME280;17400;52.392;9.750;2023-06-19T01:21:22;100440.34;;;22.99;53.13
30636;BME280;17400;52.392;9.750;2023-06-19T01:23:51;100443.94;;;23.00;52.97
30636;BME280;17400;52.392;9.750;2023-06-19T01:26:21;100449.19;;;22.96;53.39
30636;BME280;17400;52.392;9.750;2023-06-19T01:28:53;100462.72;;;22.98;53.44
30636;BME280;17400;52.392;9.750;2023-06-19T01:31:26;100458.06;;;22.93;53.93
30636;BME280;17400;52.392;9.750;2023-06-19T01:33:55;100449.22;;;22.91;53.54
30636;BME280;17400;52.392;9.750;2023-06-19T01:36:24;100446.72;;;22.94;53.93
30636;BME280;17400;52.392;9.750;2023-06-19T01:38:56;100442.56;;;22.97;53.70
30636;BME280;17400;52.392;9.750;2023-06-19T01:41:25;100445.88;;;22.94;53.84
30636;BME280;17400;52.392;9.750;2023-06-19T01:43:53;100445.38;;;22.92;53.80
30636;BME280;17400;52.392;9.750;2023-06-19T01:46:22;100445.34;;;22.97;53.99
30636;BME280;17400;52.392;9.750;2023-06-19T01:48:50;100437.88;;;22.98;53.93
30636;BME280;17400;52.392;9.750;2023-06-19T01:51:18;100437.88;;;22.98;54.26
30636;BME280;17400;52.392;9.750;2023-06-19T01:53:46;100437.56;;;22.99;53.95
30636;BME280;17400;52.392;9.750;2023-06-19T01:56:18;100440.66;;;22.92;54.52
30636;BME280;17400;52.392;9.750;2023-06-19T01:58:46;100438.53;;;22.79;55.37
30636;BME280;17400;52.392;9.750;2023-06-19T02:01:13;100447.66;;;22.79;54.91
30636;BME280;17400;52.392;9.750;2023-06-19T02:03:41;100439.09;;;22.81;55.36
30636;BME280;17400;52.392;9.750;2023-06-19T02:06:09;100448.22;;;22.76;55.36
30636;BME280;17400;52.392;9.750;2023-06-19T02:08:37;100443.28;;;22.73;55.57
30636;BME280;17400;52.392;9.750;2023-06-19T02:11:05;100443.03;;;22.70;55.94
30636;BME280;17400;52.392;9.750;2023-06-19T02:13:34;100445.25;;;22.68;55.92
30636;BME280;17400;52.392;9.750;2023-06-19T02:16:05;100440.53;;;22.73;55.48
30636;BME280;17400;52.392;9.750;2023-06-19T02:18:33;100449.31;;;22.75;55.12
30636;BME280;17400;52.392;9.750;2023-06-19T02:21:01;100437.47;;;22.75;55.61
30636;BME280;17400;52.392;9.750;2023-06-19T02:23:29;100430.28;;;22.74;56.36
30636;BME280;17400;52.392;9.750;2023-06-19T02:25:57;100429.47;;;22.73;56.18
30636;BME280;17400;52.392;9.750;2023-06-19T02:28:25;100424.00;;;22.68;56.50
30636;BME280;17400;52.392;9.750;2023-06-19T02:30:54;100426.78;;;22.63;56.57
30636;BME280;17400;52.392;9.750;2023-06-19T02:33:22;100415.81;;;22.53;57.23
30636;BME280;17400;52.392;9.750;2023-06-19T02:35:50;100410.88;;;22.44;58.15
30636;BME280;17400;52.392;9.750;2023-06-19T02:38:18;100417.50;;;22.43;58.09
30636;BME280;17400;52.392;9.750;2023-06-19T02:40:48;100402.13;;;22.32;58.60
30636;BME280;17400;52.392;9.750;2023-06-19T02:43:16;100402.63;;;22.39;58.13
30636;BME280;17400;52.392;9.750;2023-06-19T02:45:43;100385.00;;;22.30;58.76
30636;BME280;17400;52.392;9.750;2023-06-19T02:48:13;100410.66;;;22.30;58.60
30636;BME280;17400;52.392;9.750;2023-06-19T02:50:41;100401.28;;;22.37;58.58
30636;BME280;17400;52.392;9.750;2023-06-19T02:53:08;100397.13;;;22.39;58.13
30636;BME280;17400;52.392;9.750;2023-06-19T02:55:37;100397.41;;;22.43;57.72
30636;BME280;17400;52.392;9.750;2023-06-19T02:58:05;100394.06;;;22.41;57.71
30636;BME280;17400;52.392;9.750;2023-06-19T03:00:35;100382.25;;;22.30;58.79
30636;BME280;17400;52.392;9.750;2023-06-19T03:03:03;100394.13;;;22.30;59.01
30636;BME280;17400;52.392;9.750;2023-06-19T03:05:33;100396.66;;;22.22;59.34
30636;BME280;17400;52.392;9.750;2023-06-19T03:08:00;100392.22;;;22.21;59.02
30636;BME280;17400;52.392;9.750;2023-06-19T03:10:30;100386.19;;;22.19;59.18
30636;BME280;17400;52.392;9.750;2023-06-19T03:12:58;100390.56;;;22.25;58.80
30636;BME280;17400;52.392;9.750;2023-06-19T03:15:27;100382.28;;;22.25;58.66
30636;BME280;17400;52.392;9.750;2023-06-19T03:17:55;100387.53;;;22.21;58.73
30636;BME280;17400;52.392;9.750;2023-06-19T03:20:23;100387.81;;;22.20;58.71
30636;BME280;17400;52.392;9.750;2023-06-19T03:22:53;100391.41;;;22.25;58.33
30636;BME280;17400;52.392;9.750;2023-06-19T03:25:20;100380.63;;;22.24;58.90
30636;BME280;17400;52.392;9.750;2023-06-19T03:27:48;100386.44;;;22.22;58.64
30636;BME280;17400;52.392;9.750;2023-06-19T03:30:16;100384.53;;;22.18;59.28
30636;BME280;17400;52.392;9.750;2023-06-19T03:32:45;100394.47;;;22.13;59.07
30636;BME280;17400;52.392;9.750;2023-06-19T03:35:13;100393.63;;;22.13;59.30
30636;BME280;17400;52.392;9.750;2023-06-19T03:37:41;100398.34;;;22.12;58.79
30636;BME280;17400;52.392;9.750;2023-06-19T03:40:13;100399.69;;;22.20;58.80
30636;BME280;17400;52.392;9.750;2023-06-19T03:42:41;100404.13;;;22.16;59.05
30636;BME280;17400;52.392;9.750;2023-06-19T03:45:10;100406.88;;;22.16;58.47
30636;BME280;17400;52.392;9.750;2023-06-19T03:47:38;100406.03;;;22.16;58.73
30636;BME280;17400;52.392;9.750;2023-06-19T03:50:07;100417.63;;;22.18;58.71
30636;BME280;17400;52.392;9.750;2023-06-19T03:52:47;100417.03;;;22.21;58.79
30636;BME280;17400;52.392;9.750;2023-06-19T03:55:18;100413.72;;;22.24;58.38
30636;BME280;17400;52.392;9.750;2023-06-19T03:57:46;100413.69;;;22.29;58.38
30636;BME280;17400;52.392;9.750;2023-06-19T04:00:16;100415.91;;;22.27;57.87
30636;BME280;17400;52.392;9.750;2023-06-19T04:02:44;100415.63;;;22.28;58.66
30636;BME280;17400;52.392;9.750;2023-06-19T04:05:15;100423.03;;;22.33;58.08
30636;BME280;17400;52.392;9.750;2023-06-19T04:07:43;100423.06;;;22.38;58.28
30636;BME280;17400;52.392;9.750;2023-06-19T04:10:11;100423.84;;;22.49;57.52
30636;BME280;17400;52.392;9.750;2023-06-19T04:12:41;100425.16;;;22.57;57.25
30636;BME280;17400;52.392;9.750;2023-06-19T04:15:09;100426.78;;;22.63;56.95
30636;BME280;17400;52.392;9.750;2023-06-19T04:17:37;100424.56;;;22.65;57.13
30636;BME280;17400;52.392;9.750;2023-06-19T04:20:06;100414.31;;;22.71;56.72
30636;BME280;17400;52.392;9.750;2023-06-19T04:22:37;100415.97;;;22.72;56.98
30636;BME280;17400;52.392;9.750;2023-06-19T04:25:08;100409.63;;;22.71;56.97
30636;BME280;17400;52.392;9.750;2023-06-19T04:27:37;100419.03;;;22.70;56.86
30636;BME280;17400;52.392;9.750;2023-06-19T04:30:07;100422.63;;;22.66;57.28
30636;BME280;17400;52.392;9.750;2023-06-19T04:32:35;100430.16;;;22.50;57.20
30636;BME280;17400;52.392;9.750;2023-06-19T04:35:06;100429.38;;;22.49;57.45
30636;BME280;17400;52.392;9.750;2023-06-19T04:37:37;100437.09;;;22.47;57.09
30636;BME280;17400;52.392;9.750;2023-06-19T04:40:06;100438.44;;;22.50;57.45
30636;BME280;17400;52.392;9.750;2023-06-19T04:42:36;100452.25;;;22.50;57.11
30636;BME280;17400;52.392;9.750;2023-06-19T04:45:08;100444.75;;;22.55;56.85
30636;BME280;17400;52.392;9.750;2023-06-19T04:47:36;100441.38;;;22.63;57.06
30636;BME280;17400;52.392;9.750;2023-06-19T04:50:18;100429.81;;;22.67;61.83
30636;BME280;17400;52.392;9.750;2023-06-19T04:52:47;100429.56;;;22.58;60.86
30636;BME280;17400;52.392;9.750;2023-06-19T04:55:18;100431.28;;;22.49;62.09
30636;BME280;17400;52.392;9.750;2023-06-19T04:57:46;100443.41;;;22.48;61.51
30636;BME280;17400;52.392;9.750;2023-06-19T05:00:16;100445.34;;;22.47;62.67
30636;BME280;17400;52.392;9.750;2023-06-19T05:02:46;100435.16;;;22.42;62.35
30636;BME280;17400;52.392;9.750;2023-06-19T05:05:14;100439.59;;;22.38;61.80
30636;BME280;17400;52.392;9.750;2023-06-19T05:07:42;100447.84;;;22.43;61.17
30636;BME280;17400;52.392;9.750;2023-06-19T05:10:11;100449.22;;;22.46;60.95
30636;BME280;17400;52.392;9.750;2023-06-19T05:12:39;100469.91;;;22.43;62.18
30636;BME280;17400;52.392;9.750;2023-06-19T05:15:08;100466.31;;;22.48;61.24
30636;BME280;17400;52.392;9.750;2023-06-19T05:17:37;100461.88;;;22.52;61.97
30636;BME280;17400;52.392;9.750;2023-06-19T05:20:07;100453.31;;;22.54;62.76
30636;BME280;17400;52.392;9.750;2023-06-19T05:22:35;100449.97;;;22.57;62.98
30636;BME280;17400;52.392;9.750;2023-06-19T05:25:04;100442.25;;;22.59;64.52
30636;BME280;17400;52.392;9.750;2023-06-19T05:27:32;100448.13;;;22.47;64.62
30636;BME280;17400;52.392;9.750;2023-06-19T05:30:00;100446.19;;;22.42;65.02
30636;BME280;17400;52.392;9.750;2023-06-19T05:32:28;100447.63;;;22.40;65.93
30636;BME280;17400;52.392;9.750;2023-06-19T05:34:57;100454.22;;;22.39;66.50
30636;BME280;17400;52.392;9.750;2023-06-19T05:37:25;100433.53;;;22.41;65.34
30636;BME280;17400;52.392;9.750;2023-06-19T05:39:53;100446.25;;;22.27;68.61
30636;BME280;17400;52.392;9.750;2023-06-19T05:42:21;100442.09;;;22.29;68.63
30636;BME280;17400;52.392;9.750;2023-06-19T05:44:49;100445.69;;;22.25;68.64
30636;BME280;17400;52.392;9.750;2023-06-19T05:47:17;100458.69;;;22.14;70.19
30636;BME280;17400;52.392;9.750;2023-06-19T05:49:47;100455.66;;;22.10;69.87
30636;BME280;17400;52.392;9.750;2023-06-19T05:52:16;100456.53;;;22.06;71.29
30636;BME280;17400;52.392;9.750;2023-06-19T05:54:44;100454.31;;;22.03;71.24
30636;BME280;17400;52.392;9.750;2023-06-19T05:57:12;100448.81;;;22.03;71.50
30636;BME280;17400;52.392;9.750;2023-06-19T05:59:42;100455.16;;;21.98;71.66
30636;BME280;17400;52.392;9.750;2023-06-19T06:02:10;100455.72;;;22.00;70.00
30636;BME280;17400;52.392;9.750;2023-06-19T06:04:38;100459.88;;;21.98;70.51
30636;BME280;17400;52.392;9.750;2023-06-19T06:07:06;100468.94;;;21.98;71.05
30636;BME280;17400;52.392;9.750;2023-06-19T06:09:36;100468.94;;;22.08;70.02
30636;BME280;17400;52.392;9.750;2023-06-19T06:12:07;100467.78;;;22.14;70.41
30636;BME280;17400;52.392;9.750;2023-06-19T06:14:35;100478.28;;;22.18;70.15
30636;BME280;17400;52.392;9.750;2023-06-19T06:17:03;100471.34;;;22.25;70.24
30636;BME280;17400;52.392;9.750;2023-06-19T06:19:32;100466.38;;;22.27;71.26
30636;BME280;17400;52.392;9.750;2023-06-19T06:21:59;100472.16;;;22.31;71.29
30636;BME280;17400;52.392;9.750;2023-06-19T06:24:27;100476.56;;;22.37;70.93
30636;BME280;17400;52.392;9.750;2023-06-19T06:26:57;100487.03;;;22.40;71.82
30636;BME280;17400;52.392;9.750;2023-06-19T06:29:25;100489.78;;;22.40;71.63
30636;BME280;17400;52.392;9.750;2023-06-19T06:32:03;100487.56;;;22.42;73.84
30636;BME280;17400;52.392;9.750;2023-06-19T06:34:33;100488.41;;;22.43;76.16
30636;BME280;17400;52.392;9.750;2023-06-19T06:37:01;100492.56;;;22.40;76.51
30636;BME280;17400;52.392;9.750;2023-06-19T06:39:32;100488.94;;;22.45;75.15
30636;BME280;17400;52.392;9.750;2023-06-19T06:42:03;100499.66;;;22.52;76.58
30636;BME280;17400;52.392;9.750;2023-06-19T06:44:32;100501.03;;;22.54;76.28
30636;BME280;17400;52.392;9.750;2023-06-19T06:47:00;100504.06;;;22.53;76.05
30636;BME280;17400;52.392;9.750;2023-06-19T06:49:28;100495.28;;;22.51;75.88
30636;BME280;17400;52.392;9.750;2023-06-19T06:51:56;100501.31;;;22.53;75.55
30636;BME280;17400;52.392;9.750;2023-06-19T06:54:24;100492.75;;;22.54;74.24
30636;BME280;17400;52.392;9.750;2023-06-19T06:56:52;100505.72;;;22.59;74.55
30636;BME280;17400;52.392;9.750;2023-06-19T06:59:25;100500.97;;;22.65;73.23
30636;BME280;17400;52.392;9.750;2023-06-19T07:01:54;100509.25;;;22.70;73.22
30636;BME280;17400;52.392;9.750;2023-06-19T07:04:23;100507.84;;;22.72;72.41
30636;BME280;17400;52.392;9.750;2023-06-19T07:06:51;100514.72;;;22.75;71.25
30636;BME280;17400;52.392;9.750;2023-06-19T07:09:18;100512.75;;;22.80;70.79
30636;BME280;17400;52.392;9.750;2023-06-19T07:11:48;100518.81;;;22.88;70.60
30636;BME280;17400;52.392;9.750;2023-06-19T07:14:19;100515.44;;;22.96;70.08
30636;BME280;17400;52.392;9.750;2023-06-19T07:16:49;100519.00;;;23.02;69.17
30636;BME280;17400;52.392;9.750;2023-06-19T07:19:17;100520.91;;;23.06;68.75
30636;BME280;17400;52.392;9.750;2023-06-19T07:21:45;100515.06;;;23.13;67.70
30636;BME280;17400;52.392;9.750;2023-06-19T07:24:13;100512.84;;;23.15;66.35
30636;BME280;17400;52.392;9.750;2023-06-19T07:26:41;100519.19;;;23.21;65.71
30636;BME280;17400;52.392;9.750;2023-06-19T07:29:09;100520.75;;;23.32;65.41
30636;BME280;17400;52.392;9.750;2023-06-19T07:31:37;100522.63;;;23.42;63.97
30636;BME280;17400;52.392;9.750;2023-06-19T07:34:06;100522.00;;;23.50;63.25
30636;BME280;17400;52.392;9.750;2023-06-19T07:36:34;100528.31;;;23.56;62.30
30636;BME280;17400;52.392;9.750;2023-06-19T07:39:02;100528.84;;;23.58;62.27
30636;BME280;17400;52.392;9.750;2023-06-19T07:41:30;100528.25;;;23.61;62.02
30636;BME280;17400;52.392;9.750;2023-06-19T07:43:58;100527.13;;;23.67;62.11
30636;BME280;17400;52.392;9.750;2023-06-19T07:46:26;100523.00;;;23.65;62.71
30636;BME280;17400;52.392;9.750;2023-06-19T07:48:54;100528.66;;;23.78;63.94
30636;BME280;17400;52.392;9.750;2023-06-19T07:51:23;100522.22;;;23.88;63.89
30636;BME280;17400;52.392;9.750;2023-06-19T07:53:51;100530.75;;;23.92;65.39
30636;BME280;17400;52.392;9.750;2023-06-19T07:56:19;100528.50;;;23.99;65.54
30636;BME280;17400;52.392;9.750;2023-06-19T07:58:47;100532.28;;;24.08;65.44
30636;BME280;17400;52.392;9.750;2023-06-19T08:01:14;100527.75;;;24.18;65.70
30636;BME280;17400;52.392;9.750;2023-06-19T08:03:43;100528.75;;;24.27;65.50
30636;BME280;17400;52.392;9.750;2023-06-19T08:06:11;100529.50;;;24.33;64.85
30636;BME280;17400;52.392;9.750;2023-06-19T08:08:41;100520.28;;;24.42;65.29
30636;BME280;17400;52.392;9.750;2023-06-19T08:11:09;100525.97;;;24.51;64.71
30636;BME280;17400;52.392;9.750;2023-06-19T08:13:36;100519.88;;;24.54;65.20
30636;BME280;17400;52.392;9.750;2023-06-19T08:16:04;100524.19;;;24.60;65.05
30636;BME280;17400;52.392;9.750;2023-06-19T08:18:33;100524.47;;;24.64;65.91
30636;BME280;17400;52.392;9.750;2023-06-19T08:21:01;100523.88;;;24.62;65.66
30636;BME280;17400;52.392;9.750;2023-06-19T08:23:31;100521.41;;;24.66;66.33
30636;BME280;17400;52.392;9.750;2023-06-19T08:26:00;100532.03;;;24.77;66.19
30636;BME280;17400;52.392;9.750;2023-06-19T08:28:30;100526.44;;;24.83;65.59
30636;BME280;17400;52.392;9.750;2023-06-19T08:30:58;100523.06;;;24.86;65.98
30636;BME280;17400;52.392;9.750;2023-06-19T08:33:26;100528.75;;;24.94;65.89
30636;BME280;17400;52.392;9.750;2023-06-19T08:35:54;100529.19;;;25.02;65.81
30636;BME280;17400;52.392;9.750;2023-06-19T08:38:21;100509.53;;;25.03;65.71
30636;BME280;17400;52.392;9.750;2023-06-19T08:40:49;100521.66;;;25.07;65.99
30636;BME280;17400;52.392;9.750;2023-06-19T08:43:19;100520.97;;;25.16;66.86
30636;BME280;17400;52.392;9.750;2023-06-19T08:45:54;100517.00;;;25.22;67.03
30636;BME280;17400;52.392;9.750;2023-06-19T08:48:28;100518.56;;;25.28;68.17
30636;BME280;17400;52.392;9.750;2023-06-19T08:50:56;100527.38;;;25.35;67.91
30636;BME280;17400;52.392;9.750;2023-06-19T08:53:24;100524.50;;;25.40;67.77
30636;BME280;17400;52.392;9.750;2023-06-19T08:55:52;100520.50;;;25.47;67.54
30636;BME280;17400;52.392;9.750;2023-06-19T08:58:23;100525.84;;;25.43;69.03
30636;BME280;17400;52.392;9.750;2023-06-19T09:00:51;100518.34;;;25.43;68.70
30636;BME280;17400;52.392;9.750;2023-06-19T09:03:20;100524.94;;;25.48;68.01
30636;BME280;17400;52.392;9.750;2023-06-19T09:05:50;100525.97;;;25.52;68.69
30636;BME280;17400;52.392;9.750;2023-06-19T09:08:18;100538.19;;;25.51;68.35
30636;BME280;17400;52.392;9.750;2023-06-19T09:10:57;100533.78;;;25.50;68.78
30636;BME280;17400;52.392;9.750;2023-06-19T09:13:27;100533.41;;;25.56;68.49
30636;BME280;17400;52.392;9.750;2023-06-19T09:15:59;100533.97;;;25.53;68.64
30636;BME280;17400;52.392;9.750;2023-06-19T09:18:29;100532.78;;;25.59;68.12
30636;BME280;17400;52.392;9.750;2023-06-19T09:20:58;100531.34;;;25.62;68.73
30636;BME280;17400;52.392;9.750;2023-06-19T09:23:26;100532.69;;;25.65;68.73
30636;BME280;17400;52.392;9.750;2023-06-19T09:25:56;100533.41;;;25.70;68.93
30636;BME280;17400;52.392;9.750;2023-06-19T09:28:28;100533.66;;;25.74;68.24
30636;BME280;17400;52.392;9.750;2023-06-19T09:30:57;100535.06;;;25.71;68.49
30636;BME280;17400;52.392;9.750;2023-06-19T09:33:27;100535.69;;;25.68;68.25
30636;BME280;17400;52.392;9.750;2023-06-19T09:35:56;100539.88;;;25.66;68.83
30636;BME280;17400;52.392;9.750;2023-06-19T09:38:25;100534.66;;;25.64;69.10
30636;BME280;17400;52.392;9.750;2023-06-19T09:40:57;100541.53;;;25.67;68.86
30636;BME280;17400;52.392;9.750;2023-06-19T09:43:35;100538.38;;;25.73;68.50
30636;BME280;17400;52.392;9.750;2023-06-19T09:46:06;100537.97;;;25.80;68.67
30636;BME280;17400;52.392;9.750;2023-06-19T09:48:35;100538.78;;;25.81;69.14
30636;BME280;17400;52.392;9.750;2023-06-19T09:51:09;100540.34;;;25.87;69.66
30636;BME280;17400;52.392;9.750;2023-06-19T09:53:38;100545.28;;;25.90;69.63
30636;BME280;17400;52.392;9.750;2023-06-19T09:56:07;100544.00;;;26.01;68.32
30636;BME280;17400;52.392;9.750;2023-06-19T09:58:37;100549.16;;;26.08;69.46
30636;BME280;17400;52.392;9.750;2023-06-19T10:01:06;100556.56;;;26.13;69.13
30636;BME280;17400;52.392;9.750;2023-06-19T10:03:36;100556.88;;;26.11;68.86
30636;BME280;17400;52.392;9.750;2023-06-19T10:06:04;100553.28;;;26.10;68.68
30636;BME280;17400;52.392;9.750;2023-06-19T10:08:39;100554.91;;;26.11;68.99
30636;BME280;17400;52.392;9.750;2023-06-19T10:11:07;100561.06;;;26.08;69.17
30636;BME280;17400;52.392;9.750;2023-06-19T10:13:37;100554.91;;;26.11;69.46
30636;BME280;17400;52.392;9.750;2023-06-19T10:16:06;100559.63;;;26.11;69.39
30636;BME280;17400;52.392;9.750;2023-06-19T10:18:45;100561.06;;;26.08;69.64
30636;BME280;17400;52.392;9.750;2023-06-19T10:21:17;100575.63;;;26.00;69.74
30636;BME280;17400;52.392;9.750;2023-06-19T10:23:53;100559.59;;;25.97;69.38
30636;BME280;17400;52.392;9.750;2023-06-19T10:26:29;100574.78;;;26.00;69.41
30636;BME280;17400;52.392;9.750;2023-06-19T10:28:59;100565.59;;;26.04;70.48
30636;BME280;17400;52.392;9.750;2023-06-19T10:31:27;100565.81;;;26.08;70.73
30636;BME280;17400;52.392;9.750;2023-06-19T10:33:56;100570.84;;;26.20;71.03
30636;BME280;17400;52.392;9.750;2023-06-19T10:36:24;100563.56;;;26.24;70.28
30636;BME280;17400;52.392;9.750;2023-06-19T10:38:53;100567.56;;;26.18;70.81
30636;BME280;17400;52.392;9.750;2023-06-19T10:41:23;100567.69;;;26.26;70.16
30636;BME280;17400;52.392;9.750;2023-06-19T10:43:55;100565.00;;;26.21;69.53
30636;BME280;17400;52.392;9.750;2023-06-19T10:46:29;100562.53;;;26.20;70.14
30636;BME280;17400;52.392;9.750;2023-06-19T10:48:58;100562.31;;;26.30;69.64
30636;BME280;17400;52.392;9.750;2023-06-19T10:51:28;100556.28;;;26.28;69.14
30636;BME280;17400;52.392;9.750;2023-06-19T10:54:01;100561.00;;;26.27;70.31
30636;BME280;17400;52.392;9.750;2023-06-19T10:56:29;100566.66;;;26.36;70.52
30636;BME280;17400;52.392;9.750;2023-06-19T10:58:58;100570.53;;;26.35;69.74
30636;BME280;17400;52.392;9.750;2023-06-19T11:01:35;100574.75;;;26.33;69.51
30636;BME280;17400;52.392;9.750;2023-06-19T11:04:05;100562.13;;;26.40;69.24
30636;BME280;17400;52.392;9.750;2023-06-19T11:06:33;100571.78;;;26.43;68.21
30636;BME280;17400;52.392;9.750;2023-06-19T11:09:06;100572.00;;;26.47;67.24
30636;BME280;17400;52.392;9.750;2023-06-19T11:11:38;100577.34;;;26.43;66.91
30636;BME280;17400;52.392;9.750;2023-06-19T11:14:07;100572.00;;;26.47;65.58
30636;BME280;17400;52.392;9.750;2023-06-19T11:16:41;100567.47;;;26.51;65.70
30636;BME280;17400;52.392;9.750;2023-06-19T11:19:15;100568.59;;;26.50;64.74
30636;BME280;17400;52.392;9.750;2023-06-19T11:21:46;100571.38;;;26.50;65.36
30636;BME280;17400;52.392;9.750;2023-06-19T11:24:16;100576.63;;;26.51;64.26
30636;BME280;17400;52.392;9.750;2023-06-19T11:26:47;100573.03;;;26.51;64.81
30636;BME280;17400;52.392;9.750;2023-06-19T11:29:21;100570.25;;;26.51;64.56
30636;BME280;17400;52.392;9.750;2023-06-19T11:31:54;100570.78;;;26.53;65.04
30636;BME280;17400;52.392;9.750;2023-06-19T11:34:32;100571.91;;;26.52;63.32
30636;BME280;17400;52.392;9.750;2023-06-19T11:37:00;100574.56;;;26.57;63.65
30636;BME280;17400;52.392;9.750;2023-06-19T11:39:28;100577.34;;;26.57;62.23
30636;BME280;17400;52.392;9.750;2023-06-19T11:41:58;100572.81;;;26.61;61.27
30636;BME280;17400;52.392;9.750;2023-06-19T11:44:27;100582.81;;;26.62;61.08
30636;BME280;17400;52.392;9.750;2023-06-19T11:46:57;100584.16;;;26.65;61.11
30636;BME280;17400;52.392;9.750;2023-06-19T11:49:26;100592.91;;;26.72;60.67
30636;BME280;17400;52.392;9.750;2023-06-19T11:51:55;100581.06;;;26.80;60.89
30636;BME280;17400;52.392;9.750;2023-06-19T11:54:22;100587.22;;;26.91;60.51
30636;BME280;17400;52.392;9.750;2023-06-19T11:56:50;100575.38;;;26.99;59.19
30636;BME280;17400;52.392;9.750;2023-06-19T11:59:18;100580.19;;;27.07;59.08
30636;BME280;17400;52.392;9.750;2023-06-19T12:01:46;100585.72;;;27.21;58.91
30636;BME280;17400;52.392;9.750;2023-06-19T12:04:16;100581.38;;;27.29;60.11
30636;BME280;17400;52.392;9.750;2023-06-19T12:06:44;100579.97;;;27.18;60.50
30636;BME280;17400;52.392;9.750;2023-06-19T12:09:12;100592.50;;;27.43;60.01
30636;BME280;17400;52.392;9.750;2023-06-19T12:11:40;100594.31;;;27.93;57.81
30636;BME280;17400;52.392;9.750;2023-06-19T12:14:08;100592.94;;;28.04;57.42
30636;BME280;17400;52.392;9.750;2023-06-19T12:16:36;100590.97;;;28.36;56.47
30636;BME280;17400;52.392;9.750;2023-06-19T12:19:07;100593.38;;;28.61;54.53
30636;BME280;17400;52.392;9.750;2023-06-19T12:21:37;100593.44;;;28.38;55.23
30636;BME280;17400;52.392;9.750;2023-06-19T12:24:08;100601.28;;;28.04;55.76
30636;BME280;17400;52.392;9.750;2023-06-19T12:26:37;100605.66;;;28.28;55.89
30636;BME280;17400;52.392;9.750;2023-06-19T12:29:06;100605.41;;;28.38;54.47
30636;BME280;17400;52.392;9.750;2023-06-19T12:31:35;100598.31;;;28.32;54.20
30636;BME280;17400;52.392;9.750;2023-06-19T12:34:04;100592.81;;;28.50;53.05
30636;BME280;17400;52.392;9.750;2023-06-19T12:36:54;100591.84;;;28.95;52.31
30636;BME280;17400;52.392;9.750;2023-06-19T12:39:26;100589.84;;;28.86;50.96
30636;BME280;17400;52.392;9.750;2023-06-19T12:41:54;100601.00;;;28.78;50.47
30636;BME280;17400;52.392;9.750;2023-06-19T12:44:25;100602.97;;;28.86;51.10
30636;BME280;17400;52.392;9.750;2023-06-19T12:46:53;100616.91;;;28.86;51.21
30636;BME280;17400;52.392;9.750;2023-06-19T12:49:21;100616.34;;;28.66;51.39
30636;BME280;17400;52.392;9.750;2023-06-19T12:51:55;100617.25;;;28.53;51.97
30636;BME280;17400;52.392;9.750;2023-06-19T12:54:23;100616.25;;;28.49;51.37
30636;BME280;17400;52.392;9.750;2023-06-19T12:56:56;100614.09;;;28.46;51.60
30636;BME280;17400;52.392;9.750;2023-06-19T12:59:25;100617.59;;;28.60;51.66
30636;BME280;17400;52.392;9.750;2023-06-19T13:01:54;100615.94;;;28.59;51.19